createdAt,value
2022-11-05T00:00:38.393Z,72.97
2022-11-05T00:03:24.243Z,73.06
2022-11-05T00:06:11.159Z,73.14
2022-11-05T00:09:08.227Z,73.18
2022-11-05T00:11:54.093Z,73.02
2022-11-05T00:14:40.189Z,73.19
2022-11-05T00:17:07.449Z,73.16
2022-11-05T00:19:34.596Z,73.33
2022-11-05T00:22:20.370Z,73.44
2022-11-05T00:25:06.167Z,73.72
2022-11-05T00:27:34.432Z,73.73
2022-11-05T00:30:04.963Z,73.57
2022-11-05T00:32:33.053Z,73.37
2022-11-05T00:35:00.181Z,73.33
2022-11-05T00:37:28.160Z,73.33
2022-11-05T00:39:55.198Z,73.34
2022-11-05T00:42:41.087Z,73.40
2022-11-05T00:45:08.953Z,73.66
2022-11-05T00:47:54.842Z,73.65
2022-11-05T00:50:22.312Z,73.54
2022-11-05T00:52:56.240Z,73.39
2022-11-05T00:55:29.942Z,73.34
2022-11-05T00:57:57.470Z,73.40
2022-11-05T01:00:25.349Z,73.55
2022-11-05T01:02:52.542Z,73.63
2022-11-05T01:05:20.048Z,73.74
2022-11-05T01:07:47.193Z,74.08
2022-11-05T01:10:14.143Z,74.12
2022-11-05T01:12:41.187Z,73.96
2022-11-05T01:15:09.404Z,73.81
2022-11-05T01:17:36.405Z,73.81
2022-11-05T01:20:03.860Z,73.94
2022-11-05T01:22:30.732Z,74.08
2022-11-05T01:24:57.753Z,74.07
2022-11-05T01:27:24.928Z,74.10
2022-11-05T01:29:51.830Z,74.11
2022-11-05T01:32:18.829Z,74.01
2022-11-05T01:34:45.733Z,73.96
2022-11-05T01:37:13.930Z,73.86
2022-11-05T01:39:40.954Z,73.76
2022-11-05T01:42:15.970Z,73.58
2022-11-05T01:45:03.412Z,73.59
2022-11-05T01:47:59.952Z,73.51
2022-11-05T01:50:49.467Z,73.62
2022-11-05T01:53:51.183Z,73.63
2022-11-05T01:56:23.870Z,73.34
2022-11-05T01:58:53.990Z,73.41
2022-11-05T02:01:21.235Z,73.49
2022-11-05T02:03:49.103Z,73.58
2022-11-05T02:06:16.770Z,73.61
2022-11-05T02:08:55.492Z,73.93
2022-11-05T02:11:22.531Z,74.15
2022-11-05T02:13:49.679Z,74.15
2022-11-05T02:16:39.562Z,73.88
2022-11-05T02:19:41.153Z,73.84
2022-11-05T02:22:33.180Z,73.82
2022-11-05T02:25:15.557Z,73.92
2022-11-05T02:28:15.478Z,73.92
2022-11-05T02:31:15.230Z,73.81
2022-11-05T02:33:44.287Z,73.80
2022-11-05T02:36:35.807Z,73.60
2022-11-05T02:39:27.332Z,73.52
2022-11-05T02:42:19.338Z,73.56
2022-11-05T02:44:54.126Z,73.67
2022-11-05T02:47:39.462Z,73.75
2022-11-05T02:50:12.651Z,73.73
2022-11-05T02:52:58.848Z,73.93
2022-11-05T02:55:40.882Z,74.13
2022-11-05T02:58:08.095Z,74.27
2022-11-05T03:00:51.257Z,74.04
2022-11-05T03:03:18.376Z,73.84
2022-11-05T03:05:59.980Z,73.75
2022-11-05T03:08:58.243Z,73.76
2022-11-05T03:11:27.070Z,73.86
2022-11-05T03:13:56.744Z,73.97
2022-11-05T03:16:37.404Z,73.98
2022-11-05T03:19:13.646Z,73.99
2022-11-05T03:22:02.017Z,73.74
2022-11-05T03:24:34.793Z,73.59
2022-11-05T03:27:07.507Z,73.54
2022-11-05T03:29:39.807Z,73.66
2022-11-05T03:32:06.808Z,73.80
2022-11-05T03:34:37.120Z,73.93
2022-11-05T03:37:04.259Z,74.09
2022-11-05T03:39:37.553Z,74.21
2022-11-05T03:47:40.583Z,74.15
2022-11-05T03:50:40.931Z,74.14
2022-11-05T03:53:14.153Z,74.21
2022-11-05T03:55:59.355Z,74.31
2022-11-05T03:58:26.474Z,74.53
2022-11-05T04:00:53.447Z,74.79
2022-11-05T04:03:20.464Z,74.66
2022-11-05T04:06:07.582Z,74.45
2022-11-05T04:08:53.373Z,74.31
2022-11-05T04:11:39.183Z,74.35
2022-11-05T04:14:06.202Z,74.32
2022-11-05T04:16:51.885Z,74.35
2022-11-05T04:19:38.812Z,74.51
2022-11-05T04:22:24.595Z,74.61
2022-11-05T04:24:51.644Z,74.55
2022-11-05T04:27:18.786Z,74.44
2022-11-05T04:30:04.774Z,74.27
2022-11-05T04:32:31.732Z,74.37
2022-11-05T04:34:58.775Z,74.35
2022-11-05T04:37:25.919Z,74.44
2022-11-05T04:39:53.275Z,74.58
2022-11-05T04:42:20.320Z,74.65
2022-11-05T04:44:47.367Z,74.66
2022-11-05T04:47:14.310Z,74.58
2022-11-05T04:49:41.257Z,74.65
2022-11-05T04:52:08.300Z,74.67
2022-11-05T04:54:35.585Z,74.86
2022-11-05T04:57:02.496Z,75.02
2022-11-05T04:59:29.568Z,75.16
2022-11-05T05:01:56.735Z,75.08
2022-11-05T05:04:23.944Z,74.96
2022-11-05T05:06:50.912Z,74.80
2022-11-05T05:09:18.179Z,74.77
2022-11-05T05:11:45.611Z,74.75
2022-11-05T05:14:12.888Z,74.82
2022-11-05T05:16:40.507Z,74.94
2022-11-05T05:19:07.591Z,75.06
2022-11-05T05:21:41.266Z,75.07
2022-11-05T05:24:16.202Z,75.08
2022-11-05T05:26:45.194Z,74.97
2022-11-05T05:30:14.797Z,74.88
2022-11-05T05:32:41.888Z,75.08
2022-11-05T05:35:09.815Z,75.20
2022-11-05T05:37:36.964Z,75.19
2022-11-05T05:40:04.216Z,75.19
2022-11-05T05:42:31.262Z,75.30
2022-11-05T05:44:58.245Z,75.20
2022-11-05T05:47:25.372Z,75.10
2022-11-05T05:49:52.513Z,74.93
2022-11-05T05:52:19.447Z,75.01
2022-11-05T05:54:46.395Z,74.93
2022-11-05T05:57:13.437Z,74.94
2022-11-05T05:59:40.382Z,74.93
2022-11-05T06:02:07.434Z,74.87
2022-11-05T06:04:34.913Z,74.56
2022-11-05T06:07:01.910Z,74.62
2022-11-05T06:09:29.202Z,74.84
2022-11-05T06:11:56.230Z,74.75
2022-11-05T06:14:23.542Z,74.68
2022-11-05T06:16:53.295Z,74.83
2022-11-05T06:19:22.722Z,74.79
2022-11-05T06:21:49.850Z,74.81
2022-11-05T06:24:17.024Z,74.77
2022-11-05T06:26:45.316Z,74.71
2022-11-05T06:29:12.318Z,74.69
2022-11-05T06:31:39.473Z,74.78
2022-11-05T06:34:06.512Z,74.95
2022-11-05T06:36:33.868Z,75.03
2022-11-05T06:39:00.957Z,75.36
2022-11-05T06:41:28.069Z,75.47
2022-11-05T06:43:55.116Z,75.47
2022-11-05T06:46:24.625Z,75.59
2022-11-05T06:48:51.778Z,75.65
2022-11-05T06:51:19.220Z,75.59
2022-11-05T06:53:46.171Z,75.64
2022-11-05T06:56:13.216Z,75.78
2022-11-05T06:58:40.161Z,75.80
2022-11-05T07:01:08.857Z,75.80
2022-11-05T07:03:37.059Z,76.13
2022-11-05T07:06:04.608Z,76.34
2022-11-05T07:08:35.408Z,76.51
2022-11-05T07:11:02.455Z,76.73
2022-11-05T07:13:29.396Z,76.81
2022-11-05T07:15:57.000Z,76.80
2022-11-05T07:18:24.211Z,76.84
2022-11-05T07:20:51.160Z,77.20
2022-11-05T07:23:18.205Z,77.38
2022-11-05T07:25:45.355Z,77.37
2022-11-05T07:28:12.365Z,77.49
2022-11-05T07:30:39.321Z,77.36
2022-11-05T07:33:06.225Z,77.11
2022-11-05T07:35:33.245Z,77.25
2022-11-05T07:38:00.093Z,77.27
2022-11-05T07:40:27.990Z,77.46
2022-11-05T07:42:56.557Z,77.14
2022-11-05T07:45:23.705Z,77.11
2022-11-05T07:47:52.229Z,77.10
2022-11-05T07:50:20.693Z,77.07
2022-11-05T07:52:48.753Z,77.02
2022-11-05T07:55:16.060Z,77.04
2022-11-05T07:57:46.619Z,77.08
2022-11-05T08:00:15.387Z,76.67
2022-11-05T08:02:42.834Z,76.44
2022-11-05T08:05:10.072Z,76.20
2022-11-05T08:07:36.970Z,76.37
2022-11-05T08:10:04.423Z,76.65
2022-11-05T08:12:32.060Z,76.65
2022-11-05T08:14:59.033Z,76.11
2022-11-05T08:17:25.939Z,75.73
2022-11-05T08:19:52.866Z,75.41
2022-11-05T08:22:20.029Z,75.23
2022-11-05T08:24:46.971Z,74.97
2022-11-05T08:27:13.964Z,74.98
2022-11-05T08:29:40.971Z,74.39
2022-11-05T08:32:07.874Z,74.04
2022-11-05T08:34:34.687Z,73.65
2022-11-05T08:37:02.112Z,73.71
2022-11-05T08:39:29.145Z,73.67
2022-11-05T08:41:56.068Z,73.44
2022-11-05T08:44:23.027Z,73.19
2022-11-05T08:46:50.116Z,73.11
2022-11-05T08:49:17.002Z,72.89
2022-11-05T08:51:44.716Z,72.62
2022-11-05T08:54:11.690Z,72.41
2022-11-05T08:56:38.699Z,72.16
2022-11-05T08:59:05.627Z,72.15
2022-11-05T09:01:33.579Z,72.26
2022-11-05T09:04:00.496Z,71.98
2022-11-05T09:06:27.354Z,71.74
2022-11-05T09:08:54.280Z,71.50
2022-11-05T09:11:21.275Z,71.26
2022-11-05T09:13:48.134Z,70.86
2022-11-05T09:16:25.475Z,70.75
2022-11-05T09:18:52.591Z,70.68
2022-11-05T09:21:19.605Z,70.86
2022-11-05T09:23:46.858Z,70.39
2022-11-05T09:26:13.831Z,70.39
2022-11-05T09:28:40.866Z,70.33
2022-11-05T09:31:08.639Z,70.02
2022-11-05T09:33:37.050Z,69.78
2022-11-05T09:36:04.569Z,69.39
2022-11-05T09:38:32.371Z,69.08
2022-11-05T09:41:02.391Z,69.11
2022-11-05T09:43:38.548Z,68.95
2022-11-05T09:46:23.460Z,68.63
2022-11-05T09:48:53.887Z,68.18
2022-11-05T09:51:23.876Z,68.16
2022-11-05T09:53:51.612Z,67.78
2022-11-05T09:56:24.250Z,67.55
2022-11-05T09:58:54.656Z,67.50
2022-11-05T10:01:24.478Z,67.57
2022-11-05T10:03:54.073Z,67.03
2022-11-05T10:06:23.073Z,66.97
2022-11-05T10:08:57.660Z,67.01
2022-11-05T10:11:45.983Z,66.45
2022-11-05T10:14:18.882Z,65.64
2022-11-05T10:16:47.963Z,64.99
2022-11-05T10:19:16.620Z,64.60
2022-11-05T10:26:00.869Z,64.11
2022-11-05T10:31:53.930Z,64.18
2022-11-05T10:34:22.042Z,64.35
2022-11-05T10:36:49.047Z,64.38
2022-11-05T10:39:17.840Z,64.65
2022-11-05T10:41:57.577Z,64.45
2022-11-05T10:44:30.563Z,64.64
2022-11-05T10:47:07.652Z,64.88
2022-11-05T10:49:39.739Z,65.05
2022-11-05T10:52:24.988Z,65.16
2022-11-05T10:54:53.895Z,65.42
2022-11-05T10:57:47.407Z,65.74
2022-11-05T11:00:17.095Z,65.41
2022-11-05T11:02:51.071Z,65.35
2022-11-05T11:05:24.043Z,65.44
2022-11-05T11:08:01.703Z,65.47
2022-11-05T11:10:29.120Z,65.51
2022-11-05T11:12:56.514Z,65.85
2022-11-05T11:15:28.722Z,65.61
2022-11-05T11:17:56.350Z,64.78
2022-11-05T11:20:26.291Z,64.33
2022-11-05T11:22:59.370Z,64.25
2022-11-05T11:25:28.280Z,64.09
2022-11-05T11:27:55.169Z,63.94
2022-11-05T11:30:22.143Z,63.94
2022-11-05T11:32:49.108Z,64.13
2022-11-05T11:35:23.684Z,64.30
2022-11-05T11:37:52.829Z,64.24
2022-11-05T11:40:33.610Z,64.11
2022-11-05T11:43:02.850Z,64.18
2022-11-05T11:45:47.047Z,64.20
2022-11-05T11:48:19.407Z,64.10
2022-11-05T11:50:47.443Z,63.94
2022-11-05T11:53:21.558Z,64.05
2022-11-05T11:56:05.242Z,64.09
2022-11-05T11:58:39.518Z,64.23
2022-11-05T12:01:11.761Z,64.23
2022-11-05T12:03:47.716Z,64.24
2022-11-05T12:06:29.188Z,64.09
2022-11-05T12:09:01.992Z,64.25
2022-11-05T12:11:39.970Z,63.62
2022-11-05T12:14:13.179Z,63.56
2022-11-05T12:16:48.044Z,63.16
2022-11-05T12:19:39.692Z,62.84
2022-11-05T12:22:18.988Z,62.83
2022-11-05T12:24:55.659Z,63.06
2022-11-05T12:27:30.138Z,63.28
2022-11-05T12:30:01.948Z,63.65
2022-11-05T12:32:44.365Z,63.82
2022-11-05T12:35:36.321Z,63.80
2022-11-05T12:38:12.841Z,63.73
2022-11-05T12:40:48.943Z,63.87
2022-11-05T12:43:40.836Z,64.10
2022-11-05T12:46:14.007Z,64.40
2022-11-05T12:48:43.901Z,64.60
2022-11-05T12:51:20.764Z,64.69
2022-11-05T12:53:56.407Z,64.71
2022-11-05T12:56:34.692Z,64.79
2022-11-05T12:59:22.428Z,64.84
2022-11-05T13:01:58.134Z,65.02
2022-11-05T13:04:42.045Z,65.17
2022-11-05T13:07:10.508Z,65.21
2022-11-05T13:09:44.970Z,65.06
2022-11-05T13:12:16.156Z,65.11
2022-11-05T13:14:54.643Z,65.18
2022-11-05T13:17:26.340Z,65.18
2022-11-05T13:20:16.039Z,65.23
2022-11-05T13:22:49.823Z,65.31
2022-11-05T13:25:22.055Z,65.45
2022-11-05T13:27:52.058Z,65.60
2022-11-05T13:30:26.689Z,65.69
2022-11-05T13:33:00.433Z,65.69
2022-11-05T13:35:37.830Z,65.76
2022-11-05T13:38:26.675Z,65.87
2022-11-05T13:41:03.986Z,65.98
2022-11-05T13:44:20.103Z,66.06
2022-11-05T13:47:21.161Z,66.24
2022-11-05T13:50:26.652Z,66.40
2022-11-05T13:53:15.194Z,66.51
2022-11-05T13:56:09.673Z,66.63
2022-11-05T13:58:48.676Z,66.80
2022-11-05T14:01:16.037Z,66.65
2022-11-05T14:03:51.046Z,66.39
2022-11-05T14:06:30.073Z,66.32
2022-11-05T14:09:01.278Z,66.45
2022-11-05T14:11:41.986Z,66.60
2022-11-05T14:14:21.388Z,66.81
2022-11-05T14:17:12.897Z,67.03
2022-11-05T14:20:15.682Z,67.26
2022-11-05T14:22:42.834Z,67.39
2022-11-05T14:25:36.244Z,67.49
2022-11-05T14:28:03.395Z,67.74
2022-11-05T14:30:45.972Z,67.79
2022-11-05T14:33:26.621Z,68.02
2022-11-05T14:36:13.311Z,68.16
2022-11-05T14:38:47.043Z,67.89
2022-11-05T14:41:14.026Z,67.98
2022-11-05T14:43:45.494Z,68.54
2022-11-05T14:46:12.629Z,68.46
2022-11-05T14:48:44.595Z,67.90
2022-11-05T14:51:30.526Z,67.66
2022-11-05T14:54:24.317Z,67.64
2022-11-05T14:56:59.332Z,67.45
2022-11-05T14:59:31.699Z,67.57
2022-11-05T15:02:05.365Z,67.76
2022-11-05T15:04:36.654Z,67.50
2022-11-05T15:07:08.525Z,67.57
2022-11-05T15:09:57.315Z,67.83
2022-11-05T15:12:24.969Z,68.19
2022-11-05T15:15:28.163Z,67.83
2022-11-05T15:18:31.614Z,67.74
2022-11-05T15:20:59.490Z,67.64
2022-11-05T15:23:29.517Z,67.79
2022-11-05T15:26:11.812Z,67.89
2022-11-05T15:28:42.704Z,68.16
2022-11-05T15:31:15.217Z,68.45
2022-11-05T15:33:43.328Z,68.50
2022-11-05T15:36:10.949Z,68.54
2022-11-05T15:38:56.662Z,68.45
2022-11-05T15:41:34.710Z,68.49
2022-11-05T15:44:02.880Z,68.59
2022-11-05T15:46:30.007Z,68.51
2022-11-05T15:49:04.420Z,68.47
2022-11-05T15:51:31.367Z,68.40
2022-11-05T15:56:58.071Z,68.23
2022-11-05T15:59:26.139Z,68.26
2022-11-05T16:02:04.023Z,68.49
2022-11-05T16:04:32.622Z,68.67
2022-11-05T16:07:01.909Z,68.85
2022-11-05T16:09:31.305Z,68.82
2022-11-05T16:12:19.982Z,68.87
2022-11-05T16:15:08.315Z,68.88
2022-11-05T16:17:54.693Z,69.11
2022-11-05T16:20:21.900Z,69.36
2022-11-05T16:22:53.806Z,69.73
2022-11-05T16:25:27.559Z,69.64
2022-11-05T16:27:55.795Z,69.60
2022-11-05T16:30:25.341Z,69.76
2022-11-05T16:32:54.652Z,70.09
2022-11-05T16:35:23.592Z,70.28
2022-11-05T16:37:55.207Z,70.27
2022-11-05T16:40:25.174Z,70.44
2022-11-05T16:42:55.446Z,70.44
2022-11-05T16:45:26.321Z,70.37
2022-11-05T16:47:53.671Z,70.38
2022-11-05T16:50:24.053Z,70.46
2022-11-05T16:52:54.427Z,70.40
2022-11-05T16:55:21.410Z,70.44
2022-11-05T16:57:53.679Z,70.44
2022-11-05T17:00:21.086Z,70.60
2022-11-05T17:02:48.380Z,70.52
2022-11-05T17:05:29.217Z,70.35
2022-11-05T17:07:56.578Z,70.63
2022-11-05T17:10:24.769Z,70.70
2022-11-05T17:12:51.690Z,70.83
2022-11-05T17:15:23.649Z,70.84
2022-11-05T17:17:51.178Z,70.86
2022-11-05T17:20:42.074Z,70.96
2022-11-05T17:23:12.597Z,71.01
2022-11-05T17:25:40.452Z,71.18
2022-11-05T17:28:07.610Z,71.35
2022-11-05T17:30:40.280Z,71.32
2022-11-05T17:33:15.187Z,71.31
2022-11-05T17:35:42.575Z,71.27
2022-11-05T17:38:10.171Z,71.27
2022-11-05T17:40:37.337Z,71.37
2022-11-05T17:43:04.370Z,71.28
2022-11-05T17:48:05.531Z,71.27
2022-11-05T17:50:32.893Z,71.19
2022-11-05T17:52:59.932Z,71.13
2022-11-05T17:55:27.085Z,71.12
2022-11-05T17:57:54.439Z,71.19
2022-11-05T18:07:52.060Z,70.85
2022-11-05T18:10:19.517Z,70.82
2022-11-05T18:12:47.574Z,70.95
2022-11-05T18:15:15.233Z,70.96
2022-11-05T18:17:42.282Z,71.25
2022-11-05T18:20:17.363Z,71.45
2022-11-05T18:22:46.410Z,71.57
2022-11-05T18:25:14.289Z,71.72
2022-11-05T18:27:44.822Z,71.78
2022-11-05T18:30:16.976Z,71.86
2022-11-05T18:32:44.943Z,71.97
2022-11-05T18:35:13.529Z,71.96
2022-11-05T18:37:40.675Z,72.17
2022-11-05T18:40:08.336Z,72.03
2022-11-05T18:42:35.382Z,72.15
2022-11-05T18:45:02.337Z,72.16
2022-11-05T18:47:34.240Z,72.27
2022-11-05T18:50:06.454Z,72.38
2022-11-05T18:52:34.020Z,72.52
2022-11-05T18:55:01.168Z,72.69
2022-11-05T18:57:31.285Z,72.63
2022-11-05T19:00:00.797Z,72.45
2022-11-05T19:02:30.900Z,72.46
2022-11-05T19:05:27.578Z,72.46
2022-11-05T19:07:45.189Z,72.52
2022-11-05T19:10:15.601Z,72.59
2022-11-05T19:12:43.208Z,72.73
2022-11-05T19:15:13.753Z,72.61
2022-11-05T19:17:40.941Z,72.48
2022-11-05T19:20:09.729Z,72.50
2022-11-05T19:22:36.880Z,72.46
2022-11-05T19:25:05.035Z,72.45
2022-11-05T19:27:34.350Z,72.54
2022-11-05T19:30:01.395Z,72.56
2022-11-05T19:32:28.418Z,72.54
2022-11-05T19:34:55.464Z,72.43
2022-11-05T19:37:22.893Z,72.43
2022-11-05T19:39:52.892Z,72.47
2022-11-05T19:42:25.268Z,72.50
2022-11-05T19:45:44.606Z,72.62
2022-11-05T19:48:19.368Z,72.74
2022-11-05T19:50:46.957Z,72.74
2022-11-05T19:53:14.001Z,72.82
2022-11-05T19:55:41.453Z,72.90
2022-11-05T19:58:09.170Z,72.95
2022-11-05T20:00:39.543Z,73.13
2022-11-05T20:03:06.580Z,73.17
2022-11-05T20:05:36.232Z,73.14
2022-11-05T20:26:22.406Z,70.53
2022-11-05T20:28:49.488Z,69.80
2022-11-05T20:31:17.331Z,69.84
2022-11-05T20:33:45.416Z,69.96
2022-11-05T20:36:19.418Z,70.21
2022-11-05T20:38:48.271Z,70.39
2022-11-05T20:41:15.646Z,70.63
2022-11-05T20:43:43.029Z,70.82
2022-11-05T20:46:14.112Z,71.09
2022-11-05T20:48:45.081Z,71.21
2022-11-05T20:51:14.193Z,71.28
2022-11-05T20:53:43.337Z,71.58
2022-11-05T20:56:22.223Z,71.62
2022-11-05T20:58:50.477Z,71.63
2022-11-05T21:01:17.822Z,71.91
2022-11-05T21:03:47.340Z,72.01
2022-11-05T21:06:14.925Z,72.19
2022-11-05T21:08:57.004Z,72.20
2022-11-05T21:11:49.535Z,72.36
2022-11-05T21:14:19.755Z,72.39
2022-11-05T21:16:46.803Z,72.36
2022-11-05T21:19:15.386Z,72.51
2022-11-05T21:21:42.468Z,72.62
2022-11-05T21:24:09.592Z,72.76
2022-11-05T21:26:37.038Z,72.92
2022-11-05T21:29:04.187Z,72.77
2022-11-05T21:31:37.479Z,72.34
2022-11-05T21:34:04.732Z,72.02
2022-11-05T21:36:33.120Z,71.80
2022-11-05T21:39:00.360Z,71.70
2022-11-05T21:41:30.392Z,71.74
2022-11-05T21:43:57.670Z,71.76
2022-11-05T21:46:24.587Z,71.62
2022-11-05T21:48:51.949Z,71.63
2022-11-05T21:51:39.562Z,71.55
2022-11-05T21:54:25.307Z,71.73
2022-11-05T21:57:11.474Z,71.77
2022-11-05T21:59:48.263Z,71.90
2022-11-05T22:02:23.151Z,72.18
2022-11-05T22:04:52.400Z,72.24
2022-11-05T22:07:23.953Z,72.20
2022-11-05T22:09:50.948Z,72.30
2022-11-05T22:12:19.634Z,72.42
2022-11-05T22:14:46.710Z,72.56
2022-11-05T22:17:15.063Z,72.76
2022-11-05T22:19:41.970Z,72.81
2022-11-05T22:22:09.660Z,72.81
2022-11-05T22:24:39.106Z,72.91
2022-11-05T22:27:10.688Z,73.05
2022-11-05T22:29:37.669Z,73.11
2022-11-05T22:32:04.977Z,73.29
2022-11-05T22:34:31.868Z,73.33
2022-11-05T22:36:59.338Z,73.31
2022-11-05T22:39:26.329Z,73.39
2022-11-05T22:41:55.407Z,73.47
2022-11-05T22:44:23.526Z,73.62
2022-11-05T22:46:50.496Z,73.67
2022-11-05T22:49:17.519Z,73.68
2022-11-05T22:51:49.274Z,73.75
2022-11-05T22:54:17.078Z,73.87
2022-11-05T22:56:44.701Z,74.08
2022-11-05T22:59:13.706Z,74.26
2022-11-05T23:01:41.441Z,74.39
2022-11-05T23:04:08.941Z,74.51
2022-11-05T23:06:55.951Z,74.60
2022-11-05T23:09:50.113Z,74.73
2022-11-05T23:12:27.812Z,74.95
2022-11-05T23:14:58.046Z,75.23
2022-11-05T23:17:47.218Z,75.36
2022-11-05T23:20:36.156Z,75.44
2022-11-05T23:23:27.782Z,75.45
2022-11-05T23:25:58.718Z,75.50
2022-11-05T23:28:25.765Z,75.67
2022-11-05T23:31:26.091Z,75.78
2022-11-05T23:39:59.632Z,75.77
2022-11-05T23:42:45.726Z,75.90
2022-11-05T23:45:41.955Z,75.99
2022-11-05T23:48:17.241Z,76.13
2022-11-05T23:50:56.138Z,76.22
2022-11-05T23:53:23.475Z,76.36
2022-11-05T23:55:50.637Z,76.58
2022-11-05T23:58:17.978Z,76.73
